createdAt,value
2017-09-18T03:30:22.900Z,12.60
2017-09-18T03:32:50.505Z,12.50
2017-09-18T03:35:18.498Z,12.30
2017-09-18T03:37:46.105Z,12.40
2017-09-18T03:40:13.678Z,12.00
2017-09-18T03:42:42.059Z,11.80
2017-09-18T03:45:10.416Z,11.90
2017-09-18T03:47:38.365Z,11.80
2017-09-18T03:50:05.974Z,11.90
2017-09-18T03:52:34.364Z,12.40
2017-09-18T03:55:02.084Z,12.40
2017-09-18T03:57:29.824Z,12.50
2017-09-18T03:59:57.950Z,12.50
2017-09-18T04:02:26.317Z,12.70
2017-09-18T04:04:54.680Z,12.70
2017-09-18T04:07:23.123Z,12.70
2017-09-18T04:09:50.724Z,12.50
2017-09-18T04:12:18.785Z,12.30
2017-09-18T04:14:46.406Z,12.60
2017-09-18T04:17:14.000Z,12.90
2017-09-18T04:19:41.979Z,13.20
2017-09-18T04:22:09.577Z,13.30
2017-09-18T04:24:37.980Z,13.40
2017-09-18T04:27:05.995Z,13.40
2017-09-18T04:29:33.590Z,13.50
2017-09-18T04:32:01.205Z,13.50
2017-09-18T04:34:29.277Z,13.50
2017-09-18T04:36:56.955Z,13.50
2017-09-18T04:39:24.553Z,13.60
2017-09-18T04:41:52.442Z,13.60
2017-09-18T04:44:20.053Z,13.40
2017-09-18T04:46:48.430Z,13.30
2017-09-18T04:49:17.330Z,13.40
2017-09-18T04:51:45.700Z,13.30
2017-09-18T04:54:14.054Z,13.30
2017-09-18T04:56:41.673Z,13.30
2017-09-18T04:59:09.274Z,13.30
2017-09-18T05:01:37.228Z,13.40
2017-09-18T05:04:04.846Z,13.30
2017-09-18T05:06:33.212Z,13.30
2017-09-18T05:09:01.893Z,13.30
2017-09-18T05:11:30.334Z,13.40
2017-09-18T05:13:57.972Z,13.40
2017-09-18T05:16:25.584Z,13.40
2017-09-18T05:18:53.178Z,13.30
2017-09-18T05:21:21.137Z,13.30
2017-09-18T05:23:49.489Z,13.30
2017-09-18T05:26:17.092Z,13.30
2017-09-18T05:28:44.710Z,13.30
2017-09-18T05:31:12.317Z,13.40
2017-09-18T05:33:40.290Z,13.40
2017-09-18T05:36:07.870Z,13.40
2017-09-18T05:38:35.478Z,13.50
2017-09-18T05:41:03.865Z,13.40
2017-09-18T05:43:32.620Z,13.40
2017-09-18T05:46:00.216Z,13.40
2017-09-18T05:48:28.578Z,13.50
2017-09-18T05:50:56.981Z,13.50
2017-09-18T05:53:24.588Z,13.50
2017-09-18T05:55:52.575Z,13.40
2017-09-18T05:58:20.169Z,13.40
2017-09-18T06:00:47.777Z,13.40
2017-09-18T06:03:15.760Z,13.50
2017-09-18T06:05:43.365Z,13.50
2017-09-18T06:08:10.960Z,13.50
2017-09-18T06:10:38.625Z,13.50
2017-09-18T06:13:06.208Z,13.50
2017-09-18T06:15:33.800Z,13.40
2017-09-18T06:18:01.432Z,13.40
2017-09-18T06:20:29.029Z,13.50
2017-09-18T06:22:57.478Z,13.50
2017-09-18T06:25:25.080Z,13.50
2017-09-18T06:27:52.681Z,13.40
2017-09-18T06:30:20.297Z,13.50
2017-09-18T06:32:47.891Z,13.50
2017-09-18T06:35:15.869Z,13.50
2017-09-18T06:37:43.498Z,13.60
2017-09-18T06:40:11.104Z,13.60
2017-09-18T06:42:39.528Z,13.70
2017-09-18T06:45:07.142Z,13.60
2017-09-18T06:47:35.099Z,13.60
2017-09-18T06:50:02.730Z,13.60
2017-09-18T06:52:30.343Z,13.70
2017-09-18T06:54:58.716Z,13.70
2017-09-18T06:57:26.333Z,13.70
2017-09-18T06:59:54.333Z,13.80
2017-09-18T07:02:21.962Z,13.80
2017-09-18T07:04:49.560Z,13.60
2017-09-18T07:07:17.218Z,13.60
2017-09-18T07:09:44.813Z,13.30
2017-09-18T07:12:13.566Z,13.50
2017-09-18T07:14:41.181Z,13.50
2017-09-18T07:17:08.905Z,13.40
2017-09-18T07:19:36.614Z,13.70
2017-09-18T07:22:04.195Z,13.80
2017-09-18T07:24:32.277Z,14.20
2017-09-18T07:26:59.873Z,14.30
2017-09-18T07:29:28.241Z,14.30
2017-09-18T07:31:56.629Z,14.20
2017-09-18T07:34:24.989Z,14.20
2017-09-18T07:36:52.952Z,14.20
2017-09-18T07:39:20.652Z,14.20
2017-09-18T07:41:48.246Z,14.20
2017-09-18T07:44:15.860Z,14.20
2017-09-18T07:46:44.225Z,14.20
2017-09-18T07:49:13.014Z,14.40
2017-09-18T07:51:40.646Z,14.40
2017-09-18T07:54:08.254Z,14.40
2017-09-18T07:56:37.008Z,14.40
2017-09-18T07:59:04.605Z,14.40
2017-09-18T08:01:32.972Z,14.60
2017-09-18T08:04:01.771Z,15.00
2017-09-18T08:06:29.387Z,15.00
2017-09-18T08:08:56.989Z,14.90
2017-09-18T08:11:25.385Z,14.80
2017-09-18T08:13:52.981Z,14.80
2017-09-18T08:16:20.846Z,14.60
2017-09-18T08:18:48.450Z,14.60
2017-09-18T08:21:16.828Z,14.40
2017-09-18T08:23:45.213Z,14.60
2017-09-18T08:26:13.605Z,14.80
2017-09-18T08:28:41.689Z,14.80
2017-09-18T08:31:09.283Z,15.00
2017-09-18T08:33:36.888Z,14.70
2017-09-18T08:36:05.278Z,14.50
2017-09-18T08:38:32.891Z,14.50
2017-09-18T08:41:00.849Z,14.30
2017-09-18T08:43:28.469Z,14.20
2017-09-18T08:45:56.064Z,14.20
2017-09-18T08:48:23.690Z,14.30
2017-09-18T08:50:51.310Z,14.40
2017-09-18T08:53:19.364Z,14.30
2017-09-18T08:55:47.016Z,14.30
2017-09-18T08:58:15.821Z,14.20
2017-09-18T09:00:43.453Z,14.20
2017-09-18T09:03:11.048Z,14.10
2017-09-18T09:05:39.109Z,14.10
2017-09-18T09:08:06.708Z,14.10
2017-09-18T09:10:35.066Z,14.40
2017-09-18T09:13:02.663Z,14.40
2017-09-18T09:15:30.255Z,14.70
2017-09-18T09:17:58.240Z,14.90
2017-09-18T09:20:25.840Z,15.00
2017-09-18T09:22:54.215Z,14.70
2017-09-18T09:25:22.606Z,15.00
2017-09-18T09:27:50.216Z,15.00
2017-09-18T09:30:17.833Z,15.20
2017-09-18T09:32:45.434Z,15.20
2017-09-18T09:35:13.412Z,15.50
2017-09-18T09:37:41.009Z,15.80
2017-09-18T09:40:09.362Z,16.90
2017-09-18T09:42:37.292Z,16.90
2017-09-18T09:45:05.001Z,17.00
2017-09-18T09:47:33.382Z,16.70
2017-09-18T09:50:01.776Z,16.80
2017-09-18T09:52:29.369Z,16.80
2017-09-18T09:54:57.365Z,16.80
2017-09-18T09:57:25.017Z,16.10
2017-09-18T09:59:52.641Z,16.10
2017-09-18T10:02:20.263Z,16.20
2017-09-18T10:04:47.856Z,16.00
2017-09-18T10:07:16.579Z,15.80
2017-09-18T10:09:44.178Z,15.80
2017-09-18T10:12:12.553Z,16.40
2017-09-18T10:14:40.962Z,17.40
2017-09-18T10:17:08.554Z,17.40
2017-09-18T10:19:36.758Z,18.20
2017-09-18T10:22:04.552Z,17.70
2017-09-18T10:24:32.922Z,17.50
2017-09-18T10:27:01.676Z,17.10
2017-09-18T10:29:29.296Z,17.10
2017-09-18T10:31:56.876Z,16.90
2017-09-18T10:34:24.500Z,16.50
2017-09-18T10:36:52.864Z,15.90
2017-09-18T10:39:23.191Z,15.60
2017-09-18T10:41:52.007Z,15.70
2017-09-18T10:44:19.594Z,15.70
2017-09-18T10:46:47.190Z,15.10
2017-09-18T10:49:14.797Z,15.00
2017-09-18T10:51:42.422Z,15.40
2017-09-18T10:54:11.181Z,15.40
2017-09-18T10:56:38.766Z,15.40
2017-09-18T10:59:06.360Z,15.20
2017-09-18T11:01:33.978Z,15.10
2017-09-18T11:04:01.594Z,15.00
2017-09-18T11:06:29.546Z,15.30
2017-09-18T11:08:57.150Z,15.70
2017-09-18T11:11:24.756Z,16.10
2017-09-18T11:13:53.146Z,16.30
2017-09-18T11:16:20.763Z,16.30
2017-09-18T11:18:48.825Z,16.70
2017-09-18T11:21:16.421Z,17.20
2017-09-18T11:23:44.773Z,17.60
2017-09-18T11:26:12.424Z,17.60
2017-09-18T11:28:40.025Z,18.00
2017-09-18T11:31:08.989Z,18.00
2017-09-18T11:33:36.624Z,18.00
2017-09-18T11:36:04.224Z,17.80
2017-09-18T11:38:32.988Z,17.90
2017-09-18T11:41:00.622Z,17.90
2017-09-18T11:43:28.204Z,17.70
2017-09-18T11:45:56.157Z,17.80
2017-09-18T11:48:23.819Z,17.50
2017-09-18T11:50:51.429Z,17.30
2017-09-18T11:53:20.286Z,17.30
2017-09-18T11:55:47.900Z,17.30
2017-09-18T11:58:15.547Z,17.10
2017-09-18T12:00:44.286Z,17.00
2017-09-18T12:03:11.885Z,17.00
2017-09-18T12:05:40.248Z,17.40
2017-09-18T12:08:08.206Z,17.40
2017-09-18T12:10:35.805Z,18.80
2017-09-18T12:13:04.158Z,21.70
2017-09-18T12:15:31.792Z,21.60
2017-09-18T12:17:59.384Z,27.40
2017-09-18T12:20:28.155Z,28.00
2017-09-18T12:22:55.752Z,27.90
2017-09-18T12:25:24.118Z,22.30
2017-09-18T12:27:52.540Z,20.60
2017-09-18T12:30:20.142Z,20.50
2017-09-18T12:32:48.210Z,19.40
2017-09-18T12:35:15.799Z,18.90
2017-09-18T12:37:44.174Z,18.20
2017-09-18T12:40:12.567Z,18.30
2017-09-18T12:42:40.158Z,18.30
2017-09-18T12:45:08.121Z,18.20
2017-09-18T12:47:35.720Z,17.90
2017-09-18T12:50:03.337Z,17.70
2017-09-18T12:52:31.331Z,17.70
2017-09-18T12:54:58.922Z,18.60
2017-09-18T12:57:26.554Z,22.80
2017-09-18T12:59:54.624Z,29.20
2017-09-18T13:02:22.237Z,30.40
2017-09-18T13:04:50.596Z,24.20
2017-09-18T13:07:19.355Z,22.60
2017-09-18T13:09:46.944Z,22.50
2017-09-18T13:12:15.310Z,20.70
2017-09-18T13:14:43.477Z,20.60
2017-09-18T13:17:12.100Z,20.20
2017-09-18T13:19:39.698Z,19.90
2017-09-18T13:22:07.731Z,19.50
2017-09-18T13:24:35.374Z,19.20
2017-09-18T13:27:03.758Z,18.40
2017-09-18T13:29:32.376Z,18.00
2017-09-18T13:31:59.974Z,18.00
2017-09-18T13:34:27.946Z,17.80
2017-09-18T13:36:55.633Z,17.40
2017-09-18T13:39:23.256Z,17.30
2017-09-18T13:41:50.896Z,17.30
2017-09-18T13:44:18.524Z,17.40
2017-09-18T13:46:47.298Z,17.20
2017-09-18T13:49:16.194Z,17.20
2017-09-18T13:51:44.751Z,17.20
2017-09-18T13:56:46.047Z,17.40
2017-09-18T13:59:14.801Z,17.60
2017-09-18T14:01:42.399Z,17.60
2017-09-18T14:04:10.762Z,17.70
2017-09-18T14:06:39.147Z,17.70
2017-09-18T14:09:07.512Z,17.70
2017-09-18T14:11:35.600Z,17.70
2017-09-18T14:14:03.955Z,17.70
2017-09-18T14:16:31.582Z,17.70
2017-09-18T14:18:59.508Z,17.60
2017-09-18T14:21:27.865Z,17.80
2017-09-18T14:23:55.922Z,17.80
2017-09-18T14:26:23.716Z,17.90
2017-09-18T14:28:52.078Z,18.20
2017-09-18T14:31:19.707Z,18.20
2017-09-18T14:33:47.313Z,18.10
2017-09-18T14:36:15.230Z,17.90
2017-09-18T14:38:42.830Z,18.00
2017-09-18T14:41:10.462Z,18.10
2017-09-18T14:43:38.102Z,18.30
2017-09-18T14:46:05.880Z,18.20
2017-09-18T14:48:33.777Z,18.00
2017-09-18T14:51:01.381Z,17.80
2017-09-18T14:53:28.977Z,17.90
2017-09-18T14:55:56.613Z,18.00
2017-09-18T14:58:24.207Z,18.00
2017-09-18T15:00:52.177Z,18.00
2017-09-18T15:03:19.775Z,18.00
2017-09-18T15:05:48.129Z,17.90
2017-09-18T15:08:16.028Z,17.90
2017-09-18T15:10:44.403Z,18.00
2017-09-18T15:13:12.792Z,17.90
2017-09-18T15:15:40.718Z,17.90
2017-09-18T15:18:08.323Z,17.80
2017-09-18T15:20:35.933Z,17.70
2017-09-18T15:23:03.948Z,17.60
2017-09-18T15:25:31.554Z,17.50
2017-09-18T15:27:59.151Z,17.50
2017-09-18T15:30:27.553Z,17.60
2017-09-18T15:32:55.163Z,17.60
2017-09-18T15:35:23.863Z,17.70
2017-09-18T15:37:51.482Z,17.50
2017-09-18T15:40:19.156Z,17.40
2017-09-18T15:42:46.784Z,17.50
2017-09-18T15:45:14.377Z,17.40
2017-09-18T15:47:42.368Z,17.20
2017-09-18T15:50:09.966Z,17.30
2017-09-18T15:52:37.569Z,17.30
2017-09-18T15:55:05.459Z,17.40
2017-09-18T15:57:33.057Z,17.50
2017-09-18T16:00:00.658Z,17.40
2017-09-18T16:02:28.281Z,17.40
2017-09-18T16:04:55.890Z,17.30
2017-09-18T16:07:23.830Z,17.30
2017-09-18T16:09:51.434Z,17.20
2017-09-18T16:12:19.048Z,17.30
2017-09-18T16:14:47.060Z,17.10
2017-09-18T16:17:14.666Z,17.00
2017-09-18T16:19:42.279Z,17.00
2017-09-18T16:22:10.965Z,16.80
2017-09-18T16:24:38.570Z,16.80
2017-09-18T16:27:06.179Z,16.70
2017-09-18T16:29:33.812Z,16.60
2017-09-18T16:32:01.408Z,16.60
2017-09-18T16:34:29.380Z,16.50
2017-09-18T16:36:56.991Z,16.50
2017-09-18T16:39:24.592Z,16.40
2017-09-18T16:41:52.208Z,16.30
2017-09-18T16:44:20.733Z,16.30
2017-09-18T16:46:48.704Z,16.20
2017-09-18T16:49:16.317Z,16.10
2017-09-18T16:51:44.069Z,16.00
2017-09-18T16:54:12.463Z,15.80
2017-09-18T16:56:40.078Z,15.80
2017-09-18T16:59:08.063Z,15.80
2017-09-18T17:01:36.440Z,15.70
2017-09-18T17:04:04.816Z,15.60
2017-09-18T17:06:32.504Z,15.60
2017-09-18T17:09:00.125Z,15.60
2017-09-18T17:11:28.107Z,15.50
2017-09-18T17:13:55.806Z,15.50
2017-09-18T17:16:23.424Z,15.50
2017-09-18T17:18:51.386Z,15.40
2017-09-18T17:21:19.535Z,15.30
2017-09-18T17:23:47.150Z,15.30
2017-09-18T17:26:15.567Z,15.30
2017-09-18T17:28:43.180Z,15.30
2017-09-18T17:31:11.946Z,15.20
2017-09-18T17:33:39.560Z,15.20
2017-09-18T17:36:07.172Z,15.10
2017-09-18T17:38:34.813Z,15.10
2017-09-18T17:41:02.421Z,15.10
2017-09-18T17:43:31.190Z,15.10
2017-09-18T17:45:58.803Z,15.10
2017-09-18T17:48:26.412Z,15.10
2017-09-18T17:50:54.041Z,15.00
2017-09-18T17:53:21.638Z,15.00
2017-09-18T17:55:50.708Z,14.90
2017-09-18T17:58:18.358Z,14.90
2017-09-18T18:00:45.959Z,14.90
2017-09-18T18:03:14.344Z,14.90
2017-09-18T18:05:43.611Z,14.90
2017-09-18T18:08:11.712Z,14.90
2017-09-18T18:10:40.080Z,14.90
2017-09-18T18:13:07.717Z,14.90
2017-09-18T18:15:35.613Z,14.80
2017-09-18T18:18:03.216Z,14.70
2017-09-18T18:20:30.825Z,14.60
2017-09-18T18:22:59.404Z,14.60
2017-09-18T18:25:27.773Z,14.50
2017-09-18T18:27:55.793Z,14.50
2017-09-18T18:30:23.426Z,14.40
2017-09-18T18:32:51.815Z,14.40
2017-09-18T18:35:20.310Z,14.40
2017-09-18T18:37:48.605Z,14.40
2017-09-18T18:40:16.677Z,14.40
2017-09-18T18:42:44.290Z,14.20
2017-09-18T18:45:12.682Z,14.10
2017-09-18T18:47:41.085Z,14.10
2017-09-18T18:50:08.737Z,14.10
2017-09-18T18:52:37.743Z,14.20
2017-09-18T18:55:05.415Z,14.20
2017-09-18T18:57:34.007Z,14.20
2017-09-18T19:00:01.998Z,14.10
2017-09-18T19:02:29.661Z,14.10
2017-09-18T19:04:57.315Z,14.00
2017-09-18T19:07:25.320Z,13.90
2017-09-18T19:09:53.744Z,13.80
2017-09-18T19:12:21.384Z,13.80
2017-09-18T19:14:49.010Z,13.80
2017-09-18T19:17:16.634Z,13.70
2017-09-18T19:19:44.654Z,13.60
2017-09-18T19:22:13.243Z,13.60
2017-09-18T19:24:41.657Z,13.50
2017-09-18T19:27:09.695Z,13.50
2017-09-18T19:29:38.120Z,13.50
2017-09-18T19:32:05.749Z,13.60
2017-09-18T19:34:33.875Z,13.70
2017-09-18T19:37:01.511Z,13.70
2017-09-18T19:39:29.260Z,13.70
2017-09-18T19:41:56.914Z,13.70
2017-09-18T19:44:24.534Z,13.60
2017-09-18T19:46:52.617Z,13.50
2017-09-18T19:49:21.010Z,13.30
2017-09-18T19:51:49.388Z,13.30
2017-09-18T19:54:18.173Z,13.30
2017-09-18T19:56:46.542Z,13.30
2017-09-18T19:59:14.946Z,13.40
2017-09-18T20:01:43.801Z,13.30
2017-09-18T20:04:11.470Z,13.30
2017-09-18T20:06:39.874Z,13.30
2017-09-18T20:09:07.862Z,13.20
2017-09-18T20:11:35.486Z,13.20
2017-09-18T20:14:03.872Z,13.20
2017-09-18T20:16:32.601Z,13.20
2017-09-18T20:19:00.291Z,13.10
2017-09-18T20:21:27.911Z,13.10
2017-09-18T20:23:55.539Z,13.00
2017-09-18T20:26:24.311Z,12.90
2017-09-18T20:28:52.693Z,12.90
2017-09-18T20:31:20.314Z,12.90
2017-09-18T20:33:48.434Z,12.90
2017-09-18T20:36:16.083Z,12.90
2017-09-18T20:38:43.723Z,13.00
2017-09-18T20:41:11.823Z,13.00
2017-09-18T20:43:40.200Z,12.90
2017-09-18T20:46:07.814Z,12.90
2017-09-18T20:48:35.933Z,12.90
2017-09-18T20:51:03.529Z,12.90
2017-09-18T20:53:31.141Z,12.90
2017-09-18T20:55:59.205Z,12.80
2017-09-18T20:58:26.826Z,12.70
2017-09-18T21:00:54.413Z,12.80
2017-09-18T21:03:22.034Z,12.80
2017-09-18T21:05:49.634Z,12.80
2017-09-18T21:08:17.247Z,12.80
2017-09-18T21:10:45.608Z,12.70
2017-09-18T21:13:14.380Z,12.70
2017-09-18T21:15:41.979Z,12.60
2017-09-18T21:18:09.572Z,12.50
2017-09-18T21:20:37.579Z,12.20
2017-09-18T21:23:05.182Z,12.30
2017-09-18T21:25:32.793Z,12.30
2017-09-18T21:28:00.451Z,12.30
2017-09-18T21:30:28.048Z,12.30
2017-09-18T21:32:56.797Z,12.30
2017-09-18T21:35:24.430Z,12.30
2017-09-18T21:37:52.032Z,12.20
2017-09-18T21:40:20.027Z,12.20
2017-09-18T21:42:48.440Z,12.10
2017-09-18T21:45:16.041Z,12.10
2017-09-18T21:47:43.650Z,12.20
2017-09-18T21:50:11.246Z,12.20
2017-09-18T21:52:39.214Z,12.10
2017-09-18T21:55:06.817Z,12.00
2017-09-18T21:57:34.421Z,12.10
2017-09-18T22:00:02.408Z,12.10
2017-09-18T22:02:30.037Z,12.10
2017-09-18T22:04:57.633Z,12.10
2017-09-18T22:07:25.246Z,12.10
2017-09-18T22:09:52.842Z,12.20
2017-09-18T22:12:20.816Z,12.10
2017-09-18T22:14:48.511Z,12.10
2017-09-18T22:17:16.877Z,12.10
2017-09-18T22:19:44.939Z,12.00
2017-09-18T22:22:12.557Z,12.10
2017-09-18T22:24:40.160Z,12.10
2017-09-18T22:27:07.778Z,12.10
2017-09-18T22:29:35.373Z,12.10
